EVLA/LPX METAR and TAF weather

Enter ICAO airport designator
Station Type Date Time Source
EVLA METAR 2021/04/13 06:50 UTC NOAA

EVLA 130650Z AUTO 26006KT 9999 FEW077/// OVC097/// 05/03 Q1023


Station Type Date Time Source
EVLA Decoded METAR 2021/04/13 06:50 UTC NOAA

Liepaja International Airport, Latvia (EVLA) 56-31N 021-05E
Apr 13, 2021 - 02:50 AM EDT / 2021.04.13 0650 UTC
Wind: from the W (260 degrees) at 7 MPH (6 KT):0
Visibility: greater than 7 mile(s):0
Sky conditions: overcast
Temperature: 41 F (5 C)
Dew Point: 37 F (3 C)
Relative Humidity: 86%
Pressure (altimeter): 30.21 in. Hg (1023 hPa)
ob: EVLA 130650Z AUTO 26006KT 9999 FEW077/// OVC097/// 05/03 Q1023
cycle: 7

Station Type Date Time Source
EVLA TAF 2021/04/13 06:06 UTC NOAA

TAF EVLA 130503Z 1306/1406 27007KT CAVOK
TEMPO 1318/1403 3000 BR

Example: see airport list